Nearby METAR Reports

 

KSJC - San Jose, California, USA
Distance from station: NE 14km
Updated: 08/12/2019 08:53
Light rain, Overcast
Light rain, Overcast
 Wind from calm
Wind: Calm
Temperature: 12°C
Dew Point: 12°C
Humidity: 100%
Barometer: 1014.6 hPa
Summary: Light rain
Clouds: Overcast
Visibility: 13 km
Cloud details: Partly cloudy 792 m
Mostly cloudy 1067 m
Overcast 1372 m
2019/12/08 12:53 KSJC 081253Z 00000KT 8SM -RA SCT026 BKN035 OVC045 12/12 A2996 RMK AO2 RAB48 SLP146 P0000 T01220117 $
KNUQ - Moffett Nas/Mtn, California, USA
Distance from station: N 14km
Updated: 21/11/2019 12:56
NOT Current

 
Barometer: 1011.2 hPa
2019/11/21 16:56 KNUQ 211656Z AUTO A2986 RMK AO2 SLP116 PWINO $
 
KPAO - Palo Alto, California, USA
Distance from station: NNW 23km
Updated: 08/12/2019 00:47
NOT Current
Light rain, Mostly cloudy
Light rain, Mostly cloudy
 Wind from SE
Wind: SE 11 km/h
Temperature: 14°C
Dew Point: 12°C
Humidity: 88%
Barometer: 1014.6 hPa
Summary: Light rain
Clouds: Mostly cloudy
Visibility: 13 km
Cloud details: Mostly cloudy 914 m
2019/12/08 04:47 KPAO 080447Z 14006KT 8SM -RA BKN030 14/12 A2996 RMK GPS/VOR NA AT NIGHT ; LAST
KRHV - San Jose/Reid, California, USA
Distance from station: ENE 19km
Updated: 08/12/2019 01:47
NOT Current
Mostly cloudy
Mostly cloudy
 Wind from ESE
Wind: ESE 9 km/h
Temperature: 13°C
Dew Point: 12°C
Humidity: 94%
Barometer: 1015.2 hPa
Clouds: Mostly cloudy
Visibility: 16 km
Cloud details: Mostly cloudy 1219 m
2019/12/08 05:47 KRHV 080547Z 11005KT 10SM BKN040 13/12 A2998 RMK LAST
 
KOAK - Oakland, California, USA
Distance from station: NNW 50km
Updated: 08/12/2019 08:53
Overcast
Overcast
 Wind from calm
Wind: Calm
Temperature: 13°C
Dew Point: 13°C
Humidity: 100%
Barometer: 1014.9 hPa
Clouds: Overcast
Visibility: 16 km
Cloud details: Partly cloudy 549 m
Mostly cloudy 762 m
Overcast 884 m
2019/12/08 12:53 KOAK 081253Z 00000KT 10SM SCT018 BKN025 OVC029 13/13 A2997 RMK AO2 RAB1156E19 SLP147 P0002 T01330128
KSQL - San Carlos Airpo, California, USA
Distance from station: NW 34km
Updated: 08/12/2019 00:47
NOT Current
Light rain, Overcast
Light rain, Overcast
 Wind from calm
Wind: Calm
Temperature: 15°C
Dew Point: 13°C
Humidity: 88%
Barometer: 1014.6 hPa
Summary: Light rain
Clouds: Overcast
Visibility: 10 km
Cloud details: Mostly cloudy 701 m
Overcast 914 m
2019/12/08 04:47 KSQL 080447Z 00000KT 6SM -RA BKN023 OVC030 15/13 A2996 RMK LAST
 
KSFO - San Francisco, California, USA
Distance from station: NW 49km
Updated: 08/12/2019 08:56
Mostly cloudy
Mostly cloudy
 Wind from SSW
Wind: SSW 6 km/h
Temperature: 13°C
Dew Point: 11°C
Humidity: 88%
Barometer: 1014.6 hPa
Clouds: Mostly cloudy
Visibility: 14 km
Cloud details: Partly cloudy 610 m
Mostly cloudy 792 m
Mostly cloudy 1097 m
2019/12/08 12:56 KSFO 081256Z 20003KT 9SM SCT020 BKN026 BKN036 13/11 A2996 RMK AO2 RAB38E51 SLP144 P0001 T01280111
KE16 - San Martin, California, USA
Distance from station: ESE 43km
Updated: 14/11/2019 05:35
NOT Current
Overcast
Overcast
 Wind from SE
Wind: SE 11 km/h
Temperature: 12°C
Dew Point: 10°C
Humidity: 88%
Barometer: 1017.6 hPa
Clouds: Overcast
Visibility: 16 km
Cloud details: Overcast 427 m
2019/11/14 09:35 KE16 140935Z AUTO 13006KT 10SM OVC014 12/10 A3005 RMK AO2
 
KWVI - Watsonville, California, USA
Distance from station: SSE 44km
Updated: 08/12/2019 08:53
Overcast
Overcast
 Wind from WSW
Wind: WSW 11 km/h
Temperature: 14°C
Dew Point: 13°C
Humidity: 94%
Barometer: 1015.2 hPa
Clouds: Overcast
Visibility: 16 km
Cloud details: Overcast 152 m
2019/12/08 12:53 KWVI 081253Z AUTO 25006KT 10SM OVC005 14/13 A2998 RMK AO2 RAE09 SLP151 P0000 T01390133
KHAF - Half Moon Bay, California, USA
Distance from station: WNW 50km
Updated: 08/12/2019 09:15
Mist, Overcast
Mist, Overcast
 Wind from calm
Wind: Calm
Temperature: 13°C
Dew Point: 12°C
Humidity: 94%
Barometer: 1014.9 hPa
Summary: Mist
Clouds: Overcast
Visibility: 8 km
Cloud details: Few Clouds 305 m
Overcast 701 m
2019/12/08 13:15 KHAF 081315Z AUTO 00000KT 5SM BR FEW010 OVC023 13/12 A2997 RMK AO2
 
KHWD - Hayward, California, USA
Distance from station: N 44km
Updated: 08/12/2019 08:54
Rain, Mist, Overcast
Rain, Mist, Overcast
 Wind from S
Wind: S 7 km/h
Temperature: 13°C
Dew Point: 12°C
Humidity: 94%
Barometer: 1014.6 hPa
Summary: Rain, Mist
Clouds: Overcast
Visibility: 5 km
Cloud details: Partly cloudy 457 m
Mostly cloudy 640 m
Overcast 823 m
2019/12/08 12:54 KHWD 081254Z 17004KT 3SM RA BR SCT015 BKN021 OVC027 13/12 A2996 RMK AO2 RAE00B41 SLP154 P0004 T01280122
KLVK - Livermore, California, USA
Distance from station: NNE 51km
Updated: 08/12/2019 08:53
Overcast
Overcast
 Wind from calm
Wind: Calm
Temperature: 12°C
Dew Point: 12°C
Humidity: 100%
Barometer: 1014.2 hPa
Clouds: Overcast
Visibility: 16 km
Cloud details: Partly cloudy 640 m
Mostly cloudy 792 m
Overcast 1341 m
2019/12/08 12:53 KLVK 081253Z AUTO 00000KT 10SM SCT021 BKN026 OVC044 12/12 A2995 RMK AO2 SLP141 T01220122